METAR Data
IDs: Format: Raw Decoded Include TAF

Data at: 1714 UTC 24 Aug 2019

PAMM 241656Z AUTO 20006KT 10SM OVC019 14/13 A2975 RMK AO2 SLP065 T01390128 $
PAMM 241640Z AUTO 20006KT 10SM BKN021 OVC090 14/13 A2974 RMK AO2 $
PAMM 241556Z AUTO VRB05KT 10SM OVC090 14/13 A2973 RMK AO2 SLP058 T01390128 $
PAMM 241547Z AUTO 18006KT 10SM FEW020 OVC090 14/13 A2973 RMK AO2 $
PAMM 241456Z AUTO VRB06KT 10SM OVC005 13/ A2971 RMK AO2 SLP051 T0133 53014 $
PAMM 241356Z AUTO 18005KT 9SM OVC005 13/13 A2969 RMK AO2 SLP045 T01330128 $
PAMM 241256Z AUTO 18004KT 10SM OVC005 13/13 A2968 RMK AO2 SLP041 T01330128 $
PAMM 241156Z AUTO 18008KT 10SM OVC005 13/13 A2967 RMK AO2 SLP037 P0001 60035 70116 T01330128 10133 20128 53009 $
PAMM 241056Z AUTO 19007G16KT 150V230 10SM OVC005 13/13 A2965 RMK AO2 RAE40 SLP032 P0000 T01330128 $
PAMM 241033Z AUTO 17008G15KT 140V200 9SM -RA OVC005 13/13 A2965 RMK AO2 P0000 $
PAMM 240956Z AUTO 17008G15KT 150V230 10SM -RA BKN009 OVC014 13/12 A2964 RMK AO2 CIG 006V012 SLP029 P0006 T01280122 $
PAMM 240856Z AUTO 15007G18KT 120V180 3SM -RA BR OVC007 13/12 A2964 RMK AO2 SLP028 P0006 60028 T01280122 51004 $
PAMM 240656Z AUTO 15009G17KT 5SM -RA BR BKN007 BKN013 OVC020 13/12 A2963 RMK AO2 CIG 007V011 SLP026 P0010 T01330122 $
PAMM 240640Z AUTO 16010G16KT 5SM -RA BR FEW009 BKN021 OVC035 13/12 A2963 RMK AO2 P0007 $
PAMM 240556Z AUTO 16007G14KT 120V190 4SM -RA BR SCT030 SCT047 OVC060 13/12 A2963 RMK AO2 RAB0458 SLP025 P0004 60004 T01330122 10139 20133 53005 $
PAMM 240417Z AUTO 15009G16KT 10SM SCT005 BKN031 OVC110 14/13 A2962 RMK AO2 $
PAMM 240356Z AUTO 14011G14KT 10SM BKN031 BKN048 13/13 A2962 RMK AO2 RAB24E39 SLP022 P0000 T01330128 $
PAMM 240331Z AUTO 15007KT 10SM -RA BKN006 13/12 A2962 RMK AO2 RAB24 P0000 $
PAMM 240256Z AUTO 14008KT 10SM FEW006 BKN047 OVC070 14/13 A2961 RMK AO2 SLP019 60000 T01390128 51002 $
PAMM 240254Z AUTO 14008KT 10SM FEW006 BKN047 OVC070 14/13 A2961 RMK AO2 $
PAMM 240220Z AUTO 16005G14KT 10SM BKN006 BKN028 OVC037 14/13 A2961 RMK AO2 $
PAMM 240156Z AUTO VRB06KT 10SM SCT006 BKN035 BKN043 14/13 A2961 RMK AO2 RAE55 SLP019 P0000 T01390133 $
PAMM 240056Z AUTO VRB06G16KT 8SM -RA BKN006 OVC011 14/13 A2961 RMK AO2 RAB08 CIG 005V009 SLP018 P0000 T01390133 $
PAMM 232356Z AUTO 17013G20KT 140V210 10SM OVC008 14/13 A2961 RMK AO2 RAE16 SLP017 P0001 60036 T01390128 10144 20128 53005 $
PAMM 232256Z AUTO 18010G23KT 140V230 7SM -RA OVC008 14/13 A2960 RMK AO2 PK WND 16026/2222 CIG 006V011 SLP015 P0017 T01390128 $
PAMM 232241Z AUTO 17011G22KT 4SM -RA BR OVC008 14/13 A2960 RMK AO2 PK WND 16026/2222 CIG 006V011 P0017 $
PAMM 232156Z AUTO 16012G22KT 4SM -RA BR OVC008 14/13 A2960 RMK AO2 CIG 007V013 SLP013 P0010 T01390128 $
PAMM 231956Z AUTO 15013G21KT 4SM -RA BR OVC008 14/13 A2960 RMK AO2 CIG 006V011 SLP014 P0004 T01390128 $
PAMM 231856Z AUTO 16013G21KT 10SM -RA OVC008 13/13 A2960 RMK AO2 PK WND 14029/1820 SLP014 P0001 T01330128 $
PAMM 231756Z AUTO 15014G21KT 4SM -RA BR OVC008 13/12 A2960 RMK AO2 CIG 007V011 SLP014 P0011 60041 T01280122 10128 20122 57008 $
PAMM 231656Z AUTO 16013G21KT 120V200 4SM RA BR OVC008 13/12 A2960 RMK AO2 SLP016 P0010 T01280122 $
PAMM 231556Z AUTO 16014G20KT 8SM -RA OVC008 13/12 A2962 RMK AO2 SLP021 P0005 T01280117 $
PAMM 231456Z AUTO 15011G19KT 7SM -RA OVC006 13/12 A2962 RMK AO2 SLP023 P0005 60015 T01280117 55002 $
PAMM 231356Z AUTO 15013G21KT 3SM -RA BR OVC006 12/12 A2962 RMK AO2 SLP022 P0009 T01220117 $
PAMM 231256Z AUTO 15012G19KT 8SM -RA OVC006 13/12 A2963 RMK AO2 RAE09B35 SLP023 P0001 T01280117 $
PAMM 231156Z AUTO 15013G24KT 10SM -RA OVC008 12/12 A2963 RMK AO2 SLP024 P0006 60081 70120 T01220117 10122 20117 58014 $
PAMM 231108Z AUTO 15013G22KT 6SM -RA BR BKN008 OVC013 12/11 A2965 RMK AO2 P0002 $
PAMM 231049Z AUTO 15013G21KT 7SM -RA FEW008 OVC013 12/11 A2966 RMK AO2 PK WND 14026/1006 P0010 $
PAMM 230941Z AUTO 15013G21KT 5SM RA BR BKN014 OVC021 12/11 A2967 RMK AO2 PK WND 16028/0859 P0012 $
PAMM 230856Z AUTO 15012G23KT 7SM -RA OVC018 12/11 A2968 RMK AO2 SLP040 P0014 60045 T01220106 56014 $
PAMM 230756Z AUTO 14014G20KT 5SM RA BR OVC022 12/10 A2969 RMK AO2 SLP045 P0022 T01170100 401390111 $
PAMM 230656Z AUTO 15012G22KT 5SM RA BR BKN024 OVC029 12/10 A2970 RMK AO2 PK WND 13027/0614 SLP047 P0009 T01170100 $
PAMM 230556Z AUTO 14013G23KT 100V200 5SM -RA BR BKN027 OVC035 12/09 A2972 RMK AO2 PK WND 13035/0510 SLP054 P0007 60028 T01170094 10122 20111 56029 $